createdAt,value
2019-04-05T00:01:34.367Z,9.43
2019-04-05T00:04:00.710Z,9.80
2019-04-05T00:06:26.941Z,9.37
2019-04-05T00:08:53.383Z,8.90
2019-04-05T00:11:19.687Z,9.70
2019-04-05T00:13:45.927Z,8.43
2019-04-05T00:16:12.255Z,9.27
2019-04-05T00:18:38.515Z,8.73
2019-04-05T00:21:04.969Z,8.53
2019-04-05T00:23:31.293Z,8.23
2019-04-05T00:25:57.550Z,9.47
2019-04-05T00:28:23.787Z,7.80
2019-04-05T00:30:50.040Z,7.43
2019-04-05T00:33:16.283Z,8.47
2019-04-05T00:35:42.516Z,8.80
2019-04-05T00:38:08.845Z,8.23
2019-04-05T00:40:35.101Z,10.97
2019-04-05T00:43:01.326Z,10.23
2019-04-05T00:45:28.769Z,12.17
2019-04-05T00:47:55.205Z,13.30
2019-04-05T00:50:23.445Z,9.00
2019-04-05T00:52:49.772Z,8.33
2019-04-05T00:55:16.088Z,10.63
2019-04-05T00:57:42.300Z,8.43
2019-04-05T01:00:10.854Z,10.57
2019-04-05T01:02:37.066Z,10.50
2019-04-05T01:05:05.333Z,9.37
2019-04-05T01:07:31.642Z,10.57
2019-04-05T01:09:57.984Z,14.30
2019-04-05T01:12:24.609Z,10.60
2019-04-05T01:14:52.649Z,10.83
2019-04-05T01:17:24.849Z,10.40
2019-04-05T01:19:49.582Z,12.50
2019-04-05T01:22:18.648Z,10.93
2019-04-05T01:24:44.863Z,9.47
2019-04-05T01:27:12.793Z,13.10
2019-04-05T01:29:39.232Z,11.43
2019-04-05T01:32:05.467Z,13.10
2019-04-05T01:34:31.789Z,13.30
2019-04-05T01:36:58.221Z,11.30
2019-04-05T01:39:24.468Z,10.43
2019-04-05T01:41:50.896Z,9.80
2019-04-05T01:44:17.535Z,9.60
2019-04-05T01:46:43.935Z,11.63
2019-04-05T01:49:10.465Z,12.50
2019-04-05T01:51:37.005Z,13.30
2019-04-05T01:54:03.522Z,10.87
2019-04-05T01:56:30.105Z,11.80
2019-04-05T01:58:56.321Z,13.40
2019-04-05T02:01:22.645Z,15.17
2019-04-05T02:03:49.177Z,13.47
2019-04-05T02:06:15.496Z,11.43
2019-04-05T02:08:41.738Z,9.27
2019-04-05T02:11:27.935Z,12.30
2019-04-05T02:13:54.578Z,10.23
2019-04-05T02:16:21.564Z,13.27
2019-04-05T02:18:47.782Z,13.83
2019-04-05T02:21:14.024Z,12.93
2019-04-05T02:23:40.448Z,12.33
2019-04-05T02:26:06.967Z,21.13
2019-04-05T02:28:33.196Z,13.77
2019-04-05T02:30:59.579Z,11.33
2019-04-05T02:33:25.918Z,13.20
2019-04-05T02:35:52.125Z,11.80
2019-04-05T02:38:18.461Z,9.83
2019-04-05T02:40:47.278Z,9.20
2019-04-05T02:43:17.521Z,9.13
2019-04-05T02:45:47.559Z,11.23
2019-04-05T02:48:37.505Z,13.40
2019-04-05T02:51:06.330Z,10.80
2019-04-05T02:53:35.538Z,11.63
2019-04-05T02:56:03.253Z,14.30
2019-04-05T02:58:31.905Z,14.03
2019-04-05T03:00:58.843Z,11.50
2019-04-05T03:03:25.303Z,11.17
2019-04-05T03:05:51.648Z,12.30
2019-04-05T03:08:18.535Z,11.30
2019-04-05T03:10:59.479Z,10.80
2019-04-05T03:13:29.907Z,13.47
2019-04-05T03:16:01.681Z,13.20
2019-04-05T03:18:30.172Z,12.00
2019-04-05T03:21:02.111Z,11.30
2019-04-05T03:23:51.217Z,12.70
2019-04-05T03:26:22.849Z,15.83
2019-04-05T03:28:54.601Z,11.10
2019-04-05T03:31:24.943Z,13.70
2019-04-05T03:33:50.102Z,12.50
2019-04-05T03:36:16.814Z,12.07
2019-04-05T03:38:44.547Z,16.17
2019-04-05T03:41:11.074Z,14.63
2019-04-05T03:43:38.396Z,14.50
2019-04-05T03:46:05.208Z,13.30
2019-04-05T03:48:31.962Z,14.07
2019-04-05T03:50:58.501Z,13.37
2019-04-05T03:53:25.270Z,14.17
2019-04-05T03:55:51.671Z,16.70
2019-04-05T03:58:18.995Z,16.63
2019-04-05T04:00:45.251Z,15.10
2019-04-05T04:03:12.074Z,16.87
2019-04-05T04:05:38.593Z,13.07
2019-04-05T04:08:04.956Z,14.90
2019-04-05T04:10:31.178Z,13.83
2019-04-05T04:12:57.719Z,15.10
2019-04-05T04:15:24.555Z,14.13
2019-04-05T04:17:51.187Z,12.50
2019-04-05T04:20:32.319Z,11.97
2019-04-05T04:22:58.873Z,10.90
2019-04-05T04:25:26.931Z,13.50
2019-04-05T04:27:53.150Z,10.43
2019-04-05T04:30:19.770Z,11.97
2019-04-05T04:32:46.211Z,10.47
2019-04-05T04:35:12.856Z,12.40
2019-04-05T04:37:39.603Z,10.07
2019-04-05T04:40:06.052Z,12.87
2019-04-05T04:42:32.815Z,14.07
2019-04-05T04:45:11.231Z,18.73
2019-04-05T04:47:27.631Z,13.57
2019-04-05T04:49:56.208Z,17.50
2019-04-05T04:52:23.037Z,13.93
2019-04-05T04:54:49.367Z,19.13
2019-04-05T04:57:15.993Z,18.50
2019-04-05T04:59:42.272Z,19.23
2019-04-05T05:02:09.404Z,21.00
2019-04-05T05:04:36.445Z,18.43
2019-04-05T05:07:03.192Z,17.53
2019-04-05T05:09:30.317Z,15.83
2019-04-05T05:11:56.904Z,19.90
2019-04-05T05:14:24.177Z,18.30
2019-04-05T05:16:50.647Z,19.47
2019-04-05T05:19:17.269Z,17.30
2019-04-05T05:21:44.152Z,20.67
2019-04-05T05:24:10.765Z,18.00
2019-04-05T05:26:37.094Z,19.63
2019-04-05T05:29:03.839Z,17.10
2019-04-05T05:31:30.154Z,17.60
2019-04-05T05:33:59.662Z,18.17
2019-04-05T05:36:26.368Z,21.10
2019-04-05T05:38:53.051Z,21.60
2019-04-05T05:41:19.277Z,21.20
2019-04-05T05:43:45.618Z,22.57
2019-04-05T05:46:11.942Z,21.37
2019-04-05T05:48:38.386Z,19.73
2019-04-05T05:51:04.631Z,20.60
2019-04-05T05:53:30.866Z,24.90
2019-04-05T05:55:57.105Z,22.80
2019-04-05T05:58:25.371Z,19.50
2019-04-05T06:00:51.746Z,22.93
2019-04-05T06:03:18.000Z,23.33
2019-04-05T06:05:44.224Z,24.43
2019-04-05T06:08:10.479Z,25.00
2019-04-05T06:10:36.713Z,23.60
2019-04-05T06:13:06.726Z,24.73
2019-04-05T06:15:31.278Z,26.20
2019-04-05T06:18:04.549Z,25.27
2019-04-05T06:20:25.692Z,23.23
2019-04-05T06:22:52.216Z,24.47
2019-04-05T06:25:18.497Z,23.30
2019-04-05T06:27:44.787Z,23.87
2019-04-05T06:30:11.297Z,24.70
2019-04-05T06:32:37.543Z,28.53
2019-04-05T06:35:05.482Z,25.90
2019-04-05T06:37:31.702Z,25.97
2019-04-05T06:39:57.930Z,25.23
2019-04-05T06:42:24.340Z,31.17
2019-04-05T06:44:50.564Z,27.40
2019-04-05T06:47:16.801Z,34.83
2019-04-05T06:49:43.019Z,29.03
2019-04-05T06:52:09.233Z,30.40
2019-04-05T06:54:35.497Z,29.40
2019-04-05T06:57:01.726Z,25.30
2019-04-05T06:59:27.985Z,36.53
2019-04-05T07:01:54.215Z,27.67
2019-04-05T07:04:20.447Z,22.40
2019-04-05T07:06:46.668Z,27.90
2019-04-05T07:09:12.906Z,27.17
2019-04-05T07:11:39.148Z,29.13
2019-04-05T07:14:05.381Z,22.80
2019-04-05T07:16:31.634Z,23.37
2019-04-05T07:18:57.956Z,21.80
2019-04-05T07:21:24.187Z,22.23
2019-04-05T07:23:50.733Z,22.53
2019-04-05T07:26:17.099Z,21.90
2019-04-05T07:28:43.333Z,28.90
2019-04-05T07:31:09.584Z,25.47
2019-04-05T07:33:35.839Z,26.70
2019-04-05T07:36:03.581Z,28.43
2019-04-05T07:38:30.085Z,25.30
2019-04-05T07:40:56.417Z,25.17
2019-04-05T07:43:22.643Z,19.53
2019-04-05T07:45:48.861Z,24.20
2019-04-05T07:48:15.096Z,25.27
2019-04-05T07:50:41.379Z,25.60
2019-04-05T07:53:07.714Z,29.63
2019-04-05T07:55:33.954Z,25.17
2019-04-05T07:58:00.183Z,24.80
2019-04-05T08:00:43.819Z,29.00
2019-04-05T08:03:10.348Z,27.53
2019-04-05T08:05:36.891Z,24.60
2019-04-05T08:08:06.045Z,26.10
2019-04-05T08:10:33.667Z,30.57
2019-04-05T08:13:02.555Z,27.73
2019-04-05T08:15:28.760Z,26.93
2019-04-05T08:17:54.974Z,28.90
2019-04-05T08:20:21.214Z,26.90
2019-04-05T08:22:50.543Z,21.90
2019-04-05T08:25:16.845Z,23.70
2019-04-05T08:27:43.073Z,18.10
2019-04-05T08:30:09.483Z,21.97
2019-04-05T08:32:35.703Z,25.23
2019-04-05T08:35:04.444Z,21.00
2019-04-05T08:37:30.676Z,21.83
2019-04-05T08:39:56.898Z,23.53
2019-04-05T08:42:23.134Z,28.20
2019-04-05T08:44:49.371Z,18.77
2019-04-05T08:47:15.610Z,20.60
2019-04-05T08:49:41.865Z,19.33
2019-04-05T08:52:08.111Z,18.33
2019-04-05T08:54:36.769Z,19.63
2019-04-05T08:57:03.567Z,19.83
2019-04-05T08:59:29.837Z,25.53
2019-04-05T09:01:56.068Z,16.77
2019-04-05T09:04:22.283Z,17.77
2019-04-05T09:06:48.515Z,16.53
2019-04-05T09:09:14.736Z,18.63
2019-04-05T09:11:40.982Z,18.73
2019-04-05T09:14:07.238Z,23.80
2019-04-05T09:16:33.513Z,19.80
2019-04-05T09:18:59.734Z,15.93
2019-04-05T09:21:25.958Z,16.53
2019-04-05T09:23:52.204Z,19.13
2019-04-05T09:26:18.422Z,17.90
2019-04-05T09:28:44.660Z,17.90
2019-04-05T09:31:11.014Z,16.70
2019-04-05T09:33:37.273Z,17.23
2019-04-05T09:36:03.817Z,18.43
2019-04-05T09:38:30.051Z,17.47
2019-04-05T09:40:56.284Z,19.13
2019-04-05T09:43:22.836Z,18.10
2019-04-05T09:45:49.081Z,15.23
2019-04-05T09:48:15.289Z,20.23
2019-04-05T09:50:41.547Z,23.43
2019-04-05T09:53:07.797Z,17.03
2019-04-05T09:55:34.051Z,20.83
2019-04-05T09:58:00.250Z,15.83
2019-04-05T10:00:27.485Z,18.30
2019-04-05T10:02:53.707Z,16.40
2019-04-05T10:05:20.079Z,17.20
2019-04-05T10:07:54.811Z,17.67
2019-04-05T10:10:15.248Z,17.07
2019-04-05T10:12:41.489Z,23.60
2019-04-05T10:15:07.923Z,21.03
2019-04-05T10:17:34.151Z,20.13
2019-04-05T10:20:00.359Z,22.77
2019-04-05T10:22:26.599Z,26.23
2019-04-05T10:24:52.927Z,21.57
2019-04-05T10:27:19.170Z,26.13
2019-04-05T10:29:45.392Z,21.23
2019-04-05T10:32:11.612Z,21.87
2019-04-05T10:34:39.067Z,27.77
2019-04-05T10:37:05.278Z,24.13
2019-04-05T10:39:31.551Z,25.60
2019-04-05T10:42:03.618Z,27.57
2019-04-05T10:44:26.497Z,25.40
2019-04-05T10:46:52.727Z,31.10
2019-04-05T10:49:18.945Z,29.73
2019-04-05T10:51:45.225Z,21.47
2019-04-05T10:54:11.440Z,19.73
2019-04-05T10:56:37.714Z,20.20
2019-04-05T10:59:04.048Z,20.80
2019-04-05T11:01:30.322Z,21.10
2019-04-05T11:03:58.541Z,20.27
2019-04-05T11:06:24.764Z,22.40
2019-04-05T11:08:51.001Z,19.43
2019-04-05T11:11:17.230Z,20.07
2019-04-05T11:13:43.817Z,21.93
2019-04-05T11:16:10.084Z,26.63
2019-04-05T11:18:36.334Z,20.37
2019-04-05T11:21:02.839Z,24.30
2019-04-05T11:23:29.086Z,30.37
2019-04-05T11:25:55.322Z,24.03
2019-04-05T11:28:21.811Z,24.53
2019-04-05T11:30:48.459Z,24.30
2019-04-05T11:33:15.039Z,25.57
2019-04-05T11:35:41.765Z,25.10
2019-04-05T11:38:08.180Z,24.80
2019-04-05T11:40:35.009Z,22.93
2019-04-05T11:43:02.054Z,26.90
2019-04-05T11:45:28.789Z,25.80
2019-04-05T11:47:57.699Z,21.90
2019-04-05T11:50:34.341Z,26.37
2019-04-05T11:52:53.439Z,25.20
2019-04-05T11:55:19.668Z,26.20
2019-04-05T11:57:45.898Z,21.83
2019-04-05T12:00:17.825Z,23.83
2019-04-05T12:02:48.607Z,24.63
2019-04-05T12:05:16.735Z,24.57
2019-04-05T12:07:43.302Z,26.90
2019-04-05T12:10:09.943Z,22.60
2019-04-05T12:12:36.164Z,23.13
2019-04-05T12:15:06.493Z,28.27
2019-04-05T12:17:35.035Z,22.10
2019-04-05T12:20:02.708Z,22.50
2019-04-05T12:22:29.730Z,22.33
2019-04-05T12:24:55.966Z,23.50
2019-04-05T12:27:22.207Z,29.33
2019-04-05T12:29:48.425Z,27.40
2019-04-05T12:32:18.128Z,24.87
2019-04-05T12:34:44.518Z,22.63
2019-04-05T12:37:10.771Z,24.83
2019-04-05T12:39:37.285Z,25.20
2019-04-05T12:42:03.756Z,28.13
2019-04-05T12:44:29.994Z,23.20
2019-04-05T12:46:56.244Z,21.70
2019-04-05T12:49:22.472Z,22.07
2019-04-05T12:51:48.701Z,21.00
2019-04-05T12:54:15.157Z,23.83
2019-04-05T12:56:41.724Z,27.43
2019-04-05T12:59:07.998Z,34.73
2019-04-05T13:01:34.235Z,28.83
2019-04-05T13:04:00.707Z,23.23
2019-04-05T13:06:26.968Z,34.70
2019-04-05T13:08:53.738Z,24.27
2019-04-05T13:11:20.813Z,22.27
2019-04-05T13:13:47.052Z,23.70
2019-04-05T13:16:13.328Z,26.60
2019-04-05T13:18:39.662Z,27.20
2019-04-05T13:21:14.562Z,26.30
2019-04-05T13:23:35.955Z,28.90
2019-04-05T13:26:02.552Z,25.57
2019-04-05T13:28:28.784Z,24.90
2019-04-05T13:30:55.536Z,25.60
2019-04-05T13:33:23.606Z,23.10
2019-04-05T13:35:50.115Z,25.53
2019-04-05T13:38:17.164Z,23.23
2019-04-05T13:40:45.300Z,23.70
2019-04-05T13:43:11.547Z,23.83
2019-04-05T13:45:37.892Z,25.37
2019-04-05T13:48:04.109Z,24.87
2019-04-05T13:50:30.752Z,28.83
2019-04-05T13:52:56.987Z,25.90
2019-04-05T13:55:23.215Z,27.90
2019-04-05T13:57:49.451Z,25.07
2019-04-05T14:00:18.169Z,27.60
2019-04-05T14:02:44.679Z,22.90
2019-04-05T14:05:11.410Z,26.30
2019-04-05T14:07:37.658Z,25.33
2019-04-05T14:10:10.642Z,25.13
2019-04-05T14:12:35.475Z,23.90
2019-04-05T14:15:02.184Z,25.20
2019-04-05T14:17:28.403Z,26.80
2019-04-05T14:19:54.636Z,23.30
2019-04-05T14:22:22.477Z,26.00
2019-04-05T14:24:50.432Z,21.77
2019-04-05T14:27:17.468Z,19.87
2019-04-05T14:29:43.707Z,26.70
2019-04-05T14:32:20.471Z,22.33
2019-04-05T14:34:38.062Z,22.70
2019-04-05T14:37:04.673Z,26.60
2019-04-05T14:39:30.932Z,22.30
2019-04-05T14:42:09.123Z,21.27
2019-04-05T14:44:25.551Z,25.33
2019-04-05T14:46:51.761Z,25.43
2019-04-05T14:49:18.026Z,25.90
2019-04-05T14:51:53.577Z,22.50
2019-04-05T14:54:12.685Z,25.00
2019-04-05T14:56:38.937Z,25.10
2019-04-05T14:59:05.176Z,28.57
2019-04-05T15:01:31.511Z,27.80
2019-04-05T15:03:58.602Z,26.40
2019-04-05T15:06:26.609Z,22.50
2019-04-05T15:08:52.961Z,27.60
2019-04-05T15:11:19.184Z,27.63
2019-04-05T15:13:45.417Z,25.40
2019-04-05T15:16:14.445Z,22.13
2019-04-05T15:18:39.835Z,28.00
2019-04-05T15:21:06.637Z,21.47
2019-04-05T15:23:32.930Z,22.20
2019-04-05T15:25:59.157Z,24.47
2019-04-05T15:28:25.418Z,23.63
2019-04-05T15:30:55.904Z,23.83
2019-04-05T15:33:20.342Z,25.00
2019-04-05T15:35:46.564Z,21.13
2019-04-05T15:38:12.821Z,25.50
2019-04-05T15:40:39.037Z,28.37
2019-04-05T15:43:05.263Z,25.50
2019-04-05T15:45:31.601Z,30.00
2019-04-05T15:47:57.826Z,30.23
2019-04-05T15:50:24.950Z,35.63
2019-04-05T15:52:51.198Z,28.40
2019-04-05T15:55:17.424Z,25.87
2019-04-05T15:57:43.641Z,33.57
2019-04-05T16:00:12.977Z,32.77
2019-04-05T16:02:39.435Z,32.43
2019-04-05T16:05:07.163Z,29.43
2019-04-05T16:07:33.425Z,30.57
2019-04-05T16:09:59.652Z,35.33
2019-04-05T16:12:25.898Z,32.20
2019-04-05T16:14:52.126Z,35.30
2019-04-05T16:17:18.379Z,35.60
2019-04-05T16:19:44.665Z,52.97
2019-04-05T16:22:10.973Z,37.30
2019-04-05T16:24:37.522Z,33.17
2019-04-05T16:27:03.941Z,49.17
2019-04-05T16:29:30.187Z,35.57
2019-04-05T16:31:56.427Z,32.47
2019-04-05T16:34:22.674Z,32.93
2019-04-05T16:36:48.934Z,36.37
2019-04-05T16:39:17.066Z,39.80
2019-04-05T16:41:43.329Z,36.87
2019-04-05T16:44:09.564Z,34.80
2019-04-05T16:46:35.819Z,38.63
2019-04-05T16:49:02.047Z,35.23
2019-04-05T16:51:28.307Z,35.60
2019-04-05T16:53:58.494Z,33.27
2019-04-05T16:56:24.713Z,32.03
2019-04-05T16:58:50.968Z,28.70
2019-04-05T17:01:27.041Z,36.70
2019-04-05T17:03:45.373Z,32.77
2019-04-05T17:06:11.611Z,39.33
2019-04-05T17:09:57.736Z,30.40
2019-04-05T17:12:24.252Z,31.93
2019-04-05T17:14:50.533Z,30.50
2019-04-05T17:17:16.762Z,28.27
2019-04-05T17:19:43.019Z,26.20
2019-04-05T17:22:09.270Z,32.37
2019-04-05T17:24:35.510Z,29.03
2019-04-05T17:27:01.810Z,29.90
2019-04-05T17:29:28.052Z,27.60
2019-04-05T17:31:54.339Z,28.30
2019-04-05T17:34:20.563Z,28.83
2019-04-05T17:36:46.794Z,35.90
2019-04-05T17:39:13.019Z,30.40
2019-04-05T17:41:39.372Z,35.70
2019-04-05T17:44:05.689Z,39.23
2019-04-05T17:46:31.937Z,31.43
2019-04-05T17:48:58.214Z,28.30
2019-04-05T17:51:27.296Z,36.23
2019-04-05T17:53:53.536Z,31.60
2019-04-05T17:56:19.968Z,33.30
2019-04-05T17:58:46.992Z,29.60
2019-04-05T18:01:13.425Z,28.80
2019-04-05T18:03:39.653Z,30.83
2019-04-05T18:06:05.933Z,34.40
2019-04-05T18:08:32.162Z,38.40
2019-04-05T18:10:58.496Z,30.67
2019-04-05T18:13:24.725Z,38.20
2019-04-05T18:15:52.628Z,41.77
2019-04-05T18:18:19.310Z,44.67
2019-04-05T18:20:45.553Z,42.60
2019-04-05T18:23:23.920Z,38.47
2019-04-05T18:25:39.956Z,40.20
2019-04-05T18:28:06.461Z,37.80
2019-04-05T18:30:32.797Z,43.53
2019-04-05T18:32:59.020Z,38.77
2019-04-05T18:35:25.260Z,39.33
2019-04-05T18:37:52.124Z,43.40
2019-04-05T18:40:18.602Z,34.90
2019-04-05T18:42:44.855Z,33.87
2019-04-05T18:45:11.565Z,39.37
2019-04-05T18:47:38.285Z,43.37
2019-04-05T18:50:08.758Z,40.70
2019-04-05T18:52:35.717Z,43.23
2019-04-05T18:55:05.239Z,39.90
2019-04-05T18:57:31.630Z,37.80
2019-04-05T18:59:57.890Z,39.00
2019-04-05T19:02:24.359Z,41.60
2019-04-05T19:04:50.878Z,48.83
2019-04-05T19:07:17.615Z,38.60
2019-04-05T19:09:44.815Z,41.67
2019-04-05T19:12:12.530Z,36.90
2019-04-05T19:14:40.554Z,39.43
2019-04-05T19:17:08.198Z,34.13
2019-04-05T19:19:36.095Z,38.50
2019-04-05T19:22:04.010Z,39.37
2019-04-05T19:24:31.862Z,37.87
2019-04-05T19:26:59.677Z,39.00
2019-04-05T19:29:27.600Z,42.30
2019-04-05T19:49:23.131Z,46.33
2019-04-05T19:51:50.834Z,44.67
2019-04-05T19:54:18.340Z,36.73
2019-04-05T19:56:46.030Z,42.50
2019-04-05T19:59:13.873Z,40.60
2019-04-05T20:01:41.663Z,42.50
2019-04-05T20:04:09.484Z,41.17
2019-04-05T20:06:37.317Z,40.53
2019-04-05T20:09:06.742Z,46.97
2019-04-05T20:11:34.381Z,50.53
2019-04-05T20:14:02.252Z,46.30
2019-04-05T20:16:29.969Z,47.80
2019-04-05T20:18:57.792Z,46.37
2019-04-05T20:21:24.837Z,45.33
2019-04-05T20:23:51.894Z,46.97
2019-04-05T20:26:18.852Z,45.90
2019-04-05T20:28:45.812Z,43.13
2019-04-05T20:31:12.378Z,44.53
2019-04-05T20:33:38.852Z,45.47
2019-04-05T20:36:05.131Z,42.63
2019-04-05T20:38:32.531Z,53.30
2019-04-05T20:40:58.865Z,54.97
2019-04-05T20:43:25.099Z,42.20
2019-04-05T20:45:51.464Z,46.90
2019-04-05T20:48:17.703Z,48.37
2019-04-05T20:50:43.933Z,51.77
2019-04-05T20:53:10.184Z,48.83
2019-04-05T20:55:37.456Z,50.03
2019-04-05T20:58:04.113Z,53.57
2019-04-05T21:00:30.336Z,40.40
2019-04-05T21:02:56.567Z,50.63
2019-04-05T21:05:25.593Z,42.17
2019-04-05T21:07:50.961Z,38.03
2019-04-05T21:10:17.210Z,38.87
2019-04-05T21:12:43.439Z,40.50
2019-04-05T21:15:09.934Z,41.03
2019-04-05T21:17:36.160Z,46.97
2019-04-05T21:20:06.227Z,47.20
2019-04-05T21:22:32.483Z,43.07
2019-04-05T21:24:58.739Z,49.07
2019-04-05T21:27:24.956Z,41.70
2019-04-05T21:29:51.255Z,45.70
2019-04-05T21:32:17.519Z,37.80
2019-04-05T21:34:43.762Z,41.03
2019-04-05T21:37:10.003Z,41.03
2019-04-05T21:39:36.224Z,34.93
2019-04-05T21:42:03.484Z,36.00
2019-04-05T21:44:29.699Z,43.00
2019-04-05T21:46:55.971Z,38.10
2019-04-05T21:49:22.250Z,40.67
2019-04-05T21:51:48.468Z,35.87
2019-04-05T21:54:14.689Z,36.03
2019-04-05T21:56:40.920Z,37.87
2019-04-05T21:59:07.161Z,35.27
2019-04-05T22:01:33.874Z,41.27
2019-04-05T22:04:00.704Z,33.43
2019-04-05T22:06:26.971Z,44.53
2019-04-05T22:08:53.243Z,40.80
2019-04-05T22:11:19.549Z,35.73
2019-04-05T22:13:45.793Z,35.63
2019-04-05T22:16:18.919Z,44.13
2019-04-05T22:18:45.165Z,38.13
2019-04-05T22:21:11.411Z,48.00
2019-04-05T22:23:37.653Z,32.10
2019-04-05T22:26:03.997Z,41.57
2019-04-05T22:28:30.252Z,38.13
2019-04-05T22:30:56.511Z,42.80
2019-04-05T22:33:22.732Z,41.07
2019-04-05T22:35:48.973Z,38.17
2019-04-05T22:38:15.263Z,43.50
2019-04-05T22:40:41.529Z,40.90
2019-04-05T22:43:07.754Z,41.33
2019-04-05T22:45:34.018Z,35.73
2019-04-05T22:48:00.272Z,36.33
2019-04-05T22:50:26.508Z,41.30
2019-04-05T22:52:52.734Z,37.50
2019-04-05T22:55:18.973Z,37.50
2019-04-05T22:57:45.213Z,40.30
2019-04-05T23:00:11.963Z,35.50
2019-04-05T23:02:38.226Z,35.20
2019-04-05T23:05:05.677Z,36.90
2019-04-05T23:07:31.920Z,36.80
2019-04-05T23:09:58.169Z,43.50
2019-04-05T23:12:24.393Z,37.20
2019-04-05T23:14:50.686Z,31.67
2019-04-05T23:17:16.905Z,46.10
2019-04-05T23:19:43.162Z,37.40
2019-04-05T23:22:09.504Z,44.60
2019-04-05T23:24:35.845Z,43.07
2019-04-05T23:27:02.080Z,40.63
2019-04-05T23:29:28.320Z,39.57
2019-04-05T23:31:54.592Z,42.17
2019-04-05T23:34:20.855Z,37.43
2019-04-05T23:36:47.078Z,39.87
2019-04-05T23:39:13.334Z,36.70
2019-04-05T23:41:39.686Z,38.73
2019-04-05T23:44:05.914Z,39.30
2019-04-05T23:46:32.158Z,34.07
2019-04-05T23:48:58.420Z,37.23
2019-04-05T23:51:24.646Z,37.70
2019-04-05T23:53:50.892Z,34.57
2019-04-05T23:56:17.251Z,53.53
2019-04-05T23:58:43.473Z,39.83
